Time;durP1;ratioP1;P1;durP2;ratioP2;P2;SDS_P1;SDS_P2;PMS_P1;PMS_P2;Temp;Humidity;BMP_temperature;BMP_pressure;BME280_temperature;BME280_humidity;BME280_pressure;Samples;Min_cycle;Max_cycle;Signal;HPM_P1;HPM_P2
2022/12/26 00:01:46;;;;;;;16.53;12.03;;;8.90;1.00;;;;;;6224302;23;20449;-83
2022/12/26 00:04:14;;;;;;;15.33;11.43;;;8.70;1.00;;;;;;6224829;23;20382;-83
2022/12/26 00:06:42;;;;;;;19.70;11.50;;;8.70;1.00;;;;;;6224247;23;20377;-82
2022/12/26 00:09:09;;;;;;;18.53;12.10;;;8.70;1.00;;;;;;6223564;23;20413;-82
2022/12/26 00:11:37;;;;;;;17.10;12.23;;;8.80;1.00;;;;;;6223179;23;20391;-82
2022/12/26 00:14:06;;;;;;;14.40;10.03;;;8.70;1.00;;;;;;6223360;23;20470;-83
2022/12/26 00:16:33;;;;;;;13.60;9.93;;;8.80;1.00;;;;;;6235528;23;20405;-81
2022/12/26 00:19:00;;;;;;;19.53;12.70;;;8.80;1.00;;;;;;6243198;23;20437;-81
2022/12/26 00:21:28;;;;;;;19.60;13.87;;;8.80;1.00;;;;;;6243439;23;20429;-81
2022/12/26 00:23:57;;;;;;;37.87;18.47;;;8.80;1.00;;;;;;6229917;23;20397;-83
2022/12/26 00:26:28;;;;;;;29.00;16.97;;;8.80;1.00;;;;;;6220154;23;20745;-84
2022/12/26 00:28:56;;;;;;;25.47;14.00;;;8.80;1.00;;;;;;6220631;23;20426;-83
2022/12/26 00:31:25;;;;;;;20.77;12.50;;;8.80;1.00;;;;;;6220282;23;20387;-83
2022/12/26 00:33:52;;;;;;;13.87;10.97;;;8.80;1.00;;;;;;6220744;23;20989;-83
2022/12/26 00:36:20;;;;;;;14.10;10.70;;;8.80;1.00;;;;;;6219037;23;20482;-83
2022/12/26 00:38:48;;;;;;;13.20;9.70;;;8.90;1.00;;;;;;6218933;23;20854;-83
2022/12/26 00:41:17;;;;;;;18.67;11.57;;;8.90;1.00;;;;;;6220607;23;20505;-83
2022/12/26 00:43:44;;;;;;;21.93;14.23;;;8.90;1.00;;;;;;6222229;23;20419;-82
2022/12/26 00:46:11;;;;;;;20.00;14.00;;;8.90;1.00;;;;;;6227750;23;20403;-83
2022/12/26 00:48:38;;;;;;;15.20;10.60;;;8.90;1.00;;;;;;6220635;23;20444;-82
2022/12/26 00:51:06;;;;;;;13.33;9.20;;;8.90;1.00;;;;;;6221270;23;20430;-82
2022/12/26 00:53:33;;;;;;;11.13;8.73;;;8.60;1.00;;;;;;6220436;23;20434;-82
2022/12/26 00:56:00;;;;;;;14.40;8.67;;;8.90;1.00;;;;;;6222004;23;20429;-82
2022/12/26 00:58:28;;;;;;;9.93;7.40;;;8.90;1.00;;;;;;6221364;23;20490;-82
2022/12/26 01:00:56;;;;;;;10.63;8.00;;;8.90;1.00;;;;;;6221562;23;20488;-82
2022/12/26 01:03:23;;;;;;;8.47;7.60;;;8.90;1.00;;;;;;6221121;23;20435;-82
2022/12/26 01:05:52;;;;;;;10.73;8.50;;;8.90;1.00;;;;;;6220992;23;20421;-82
2022/12/26 01:08:19;;;;;;;9.07;7.63;;;8.90;1.00;;;;;;6222589;23;20983;-82
2022/12/26 01:10:47;;;;;;;9.00;7.80;;;8.90;1.00;;;;;;6222715;23;20421;-82
2022/12/26 01:13:14;;;;;;;9.50;7.80;;;8.90;1.00;;;;;;6222322;23;20470;-82
2022/12/26 01:15:48;;;;;;;12.17;8.33;;;9.00;1.00;;;;;;6223017;23;20468;-84
2022/12/26 01:18:14;;;;;;;9.00;7.57;;;9.00;1.00;;;;;;6221244;23;20925;-83
2022/12/26 01:20:41;;;;;;;8.07;7.27;;;9.00;1.00;;;;;;6221290;23;20434;-82
2022/12/26 01:23:08;;;;;;;9.70;6.53;;;9.00;1.00;;;;;;6221904;23;20439;-82
2022/12/26 01:25:35;;;;;;;8.10;7.30;;;9.00;1.00;;;;;;6222917;23;20881;-82
2022/12/26 01:28:02;;;;;;;10.00;7.10;;;9.00;1.00;;;;;;6223666;23;20545;-84
2022/12/26 01:30:28;;;;;;;13.53;7.83;;;9.00;1.00;;;;;;6222951;23;20389;-83
2022/12/26 01:32:57;;;;;;;11.90;8.77;;;9.00;1.00;;;;;;6222276;23;20480;-83
2022/12/26 01:35:24;;;;;;;9.10;7.30;;;9.00;1.00;;;;;;6222000;23;20468;-83
2022/12/26 01:37:51;;;;;;;9.40;8.27;;;9.00;1.00;;;;;;6222179;23;20381;-82
2022/12/26 01:40:18;;;;;;;10.83;9.80;;;9.10;1.00;;;;;;6222132;23;20450;-83
2022/12/26 01:42:45;;;;;;;11.23;9.00;;;9.00;1.00;;;;;;6221480;23;20436;-82
2022/12/26 01:45:25;;;;;;;9.13;8.20;;;9.00;1.00;;;;;;6222424;23;20738;-82
2022/12/26 01:47:58;;;;;;;13.60;9.50;;;8.90;1.00;;;;;;6223848;23;20417;-82
2022/12/26 01:50:41;;;;;;;12.30;9.23;;;9.10;1.00;;;;;;6223586;23;20920;-82
2022/12/26 01:53:13;;;;;;;8.13;7.33;;;9.10;1.00;;;;;;6222786;23;20426;-83
2022/12/26 01:55:41;;;;;;;9.47;7.50;;;9.10;1.00;;;;;;6222682;23;20720;-83
2022/12/26 01:58:14;;;;;;;12.10;10.00;;;8.80;1.70;;;;;;6222622;23;20413;-83
2022/12/26 02:00:42;;;;;;;14.13;10.20;;;9.10;1.00;;;;;;6223608;23;20466;-82
2022/12/26 02:05:59;;;;;;;13.37;10.57;;;9.00;1.00;;;;;;6235860;23;20381;-82
2022/12/26 02:08:29;;;;;;;15.67;11.07;;;8.90;2.10;;;;;;6242582;23;20478;-82
2022/12/26 02:11:03;;;;;;;16.90;12.87;;;8.90;1.00;;;;;;6242176;23;20389;-82
2022/12/26 02:13:31;;;;;;;16.60;10.83;;;9.10;1.00;;;;;;6242502;23;20389;-81
2022/12/26 02:15:58;;;;;;;9.77;8.80;;;9.10;1.00;;;;;;6242227;23;20401;-82
2022/12/26 02:18:25;;;;;;;11.40;9.87;;;9.10;1.00;;;;;;6242824;23;20382;-82
2022/12/26 02:21:06;;;;;;;13.20;8.30;;;8.90;1.00;;;;;;6230959;23;20477;-83
2022/12/26 02:24:07;;;;;;;12.30;8.33;;;9.30;1.00;;;;;;6225702;23;20413;-83
2022/12/26 02:26:59;;;;;;;9.20;7.60;;;9.20;1.00;;;;;;6209448;23;20381;-83
2022/12/26 02:30:04;;;;;;;7.20;6.50;;;9.20;1.00;;;;;;6237643;23;20432;-82
2022/12/26 02:33:01;;;;;;;8.37;6.97;;;9.20;1.00;;;;;;6236450;23;20429;-82
2022/12/26 02:35:43;;;;;;;8.23;7.00;;;9.20;1.00;;;;;;6223501;23;20863;-83
2022/12/26 02:38:21;;;;;;;8.00;7.00;;;9.20;1.00;;;;;;6223259;23;20390;-83
2022/12/26 02:40:56;;;;;;;8.50;7.30;;;9.30;1.00;;;;;;6222971;23;20449;-83
2022/12/26 02:43:30;;;;;;;10.50;7.23;;;9.30;1.00;;;;;;6222853;23;20467;-83
2022/12/26 02:49:04;;;;;;;7.93;7.23;;;9.30;1.00;;;;;;6229780;23;20423;-82
2022/12/26 03:14:17;;;;;;;9.07;6.50;;;9.30;1.00;;;;;;6221128;23;20379;-83
2022/12/26 03:19:37;;;;;;;6.97;5.40;;;9.30;1.00;;;;;;6221683;23;20361;-82
2022/12/26 03:22:29;;;;;;;6.50;4.83;;;9.20;1.00;;;;;;6221884;23;20509;-83
2022/12/26 03:27:38;;;;;;;7.10;5.90;;;9.40;1.00;;;;;;6222009;23;20397;-82
2022/12/26 03:32:50;;;;;;;5.90;5.40;;;9.40;1.00;;;;;;6221591;23;20554;-83
2022/12/26 03:35:17;;;;;;;9.37;5.90;;;9.80;1.00;;;;;;6221159;23;20471;-83
2022/12/26 03:37:52;;;;;;;12.17;6.00;;;9.50;1.00;;;;;;6221522;23;20406;-82
2022/12/26 04:20:35;;;;;;;6.67;5.77;;;9.60;1.00;;;;;;6216995;23;20369;-87
2022/12/26 04:45:37;;;;;;;6.33;5.23;;;9.70;1.00;;;;;;6220533;23;20474;-87
2022/12/26 04:50:51;;;;;;;6.83;5.90;;;9.70;1.00;;;;;;6225210;23;20392;-86
2022/12/26 04:53:18;;;;;;;6.27;5.67;;;9.60;1.00;;;;;;6228988;23;20428;-85
2022/12/26 04:55:45;;;;;;;6.60;5.70;;;9.80;1.00;;;;;;6233198;23;20409;-88
2022/12/26 04:58:12;;;;;;;6.07;5.50;;;9.70;1.00;;;;;;6234448;23;20407;-85
2022/12/26 05:00:40;;;;;;;5.93;5.30;;;9.70;1.00;;;;;;6235611;23;20425;-87
2022/12/26 05:11:46;;;;;;;7.27;5.80;;;9.40;1.00;;;;;;6215626;23;21019;-86
2022/12/26 05:14:12;;;;;;;6.87;6.17;;;9.70;1.00;;;;;;6225577;23;20431;-86
2022/12/26 05:30:29;;;;;;;6.23;5.50;;;9.80;1.00;;;;;;6225814;23;20537;-87
2022/12/26 05:35:42;;;;;;;7.00;4.97;;;9.80;1.00;;;;;;6229159;23;20416;-87
2022/12/26 05:38:10;;;;;;;9.10;6.67;;;9.80;1.00;;;;;;6243724;23;20373;-87
2022/12/26 05:40:37;;;;;;;8.23;5.03;;;9.80;1.00;;;;;;6243681;23;20422;-86
2022/12/26 05:43:04;;;;;;;6.37;5.67;;;9.80;1.00;;;;;;6243230;23;20440;-85
2022/12/26 05:45:31;;;;;;;5.47;4.90;;;9.80;1.00;;;;;;6243826;23;20402;-86
2022/12/26 05:48:00;;;;;;;5.30;4.80;;;9.80;1.00;;;;;;6243937;23;20402;-86
2022/12/26 05:50:27;;;;;;;9.20;4.80;;;9.80;1.00;;;;;;6243589;23;20488;-87
2022/12/26 05:52:56;;;;;;;4.77;4.37;;;9.90;1.00;;;;;;6243253;23;20430;-87
2022/12/26 05:55:23;;;;;;;6.40;5.43;;;9.90;1.00;;;;;;6238739;23;20433;-87
2022/12/26 05:57:50;;;;;;;5.53;5.00;;;9.90;1.00;;;;;;6231241;23;20421;-88
2022/12/26 06:00:17;;;;;;;5.33;4.77;;;9.90;1.00;;;;;;6228903;23;20385;-86
2022/12/26 06:02:44;;;;;;;6.73;4.33;;;10.00;1.00;;;;;;6226190;23;20476;-87
2022/12/26 06:05:12;;;;;;;4.90;4.50;;;9.90;1.00;;;;;;6225139;23;20438;-87
2022/12/26 06:07:39;;;;;;;5.33;4.60;;;9.60;1.00;;;;;;6224618;23;20388;-88
2022/12/26 06:10:06;;;;;;;4.60;4.20;;;9.80;1.00;;;;;;6223581;23;20438;-86
2022/12/26 06:12:33;;;;;;;5.23;4.73;;;9.80;1.00;;;;;;6224938;23;20401;-87
2022/12/26 06:15:00;;;;;;;5.07;4.43;;;9.80;1.00;;;;;;6223868;23;20759;-87
2022/12/26 06:17:27;;;;;;;4.47;4.07;;;9.80;1.00;;;;;;6222884;23;20406;-88
2022/12/26 06:19:54;;;;;;;4.30;3.90;;;9.80;1.00;;;;;;6240344;23;20384;-85
2022/12/26 06:22:22;;;;;;;6.17;4.90;;;9.80;1.00;;;;;;6240523;23;20405;-87
2022/12/26 06:24:49;;;;;;;5.47;4.97;;;9.80;1.00;;;;;;6229324;23;20378;-87
2022/12/26 06:27:16;;;;;;;5.10;4.70;;;9.80;1.00;;;;;;6224198;23;20441;-87
2022/12/26 06:29:43;;;;;;;5.20;4.03;;;9.80;1.00;;;;;;6234629;23;20460;-87
2022/12/26 06:32:10;;;;;;;5.17;4.77;;;9.70;1.00;;;;;;6221225;23;20402;-87
2022/12/26 06:34:37;;;;;;;6.13;4.30;;;9.90;1.00;;;;;;6224579;23;20493;-87
2022/12/26 06:37:04;;;;;;;6.60;6.10;;;9.80;1.00;;;;;;6224969;23;20391;-87
2022/12/26 06:39:32;;;;;;;4.67;4.30;;;9.80;1.00;;;;;;6226110;23;20498;-87
2022/12/26 06:41:59;;;;;;;4.80;4.30;;;9.80;1.00;;;;;;6225522;23;20406;-86
2022/12/26 06:44:26;;;;;;;5.50;5.00;;;9.80;1.00;;;;;;6223595;23;20485;-87
2022/12/26 06:46:52;;;;;;;6.50;4.40;;;9.80;1.00;;;;;;6229284;23;20464;-88
2022/12/26 06:49:19;;;;;;;4.30;3.90;;;9.80;1.00;;;;;;6232231;23;20785;-87
2022/12/26 06:51:46;;;;;;;4.97;4.57;;;9.80;1.00;;;;;;6227964;23;20381;-87
2022/12/26 06:54:13;;;;;;;6.00;4.67;;;9.80;1.00;;;;;;6228294;23;20408;-87
2022/12/26 06:56:44;;;;;;;4.37;4.07;;;9.80;1.00;;;;;;6225272;23;20912;-86
2022/12/26 06:59:11;;;;;;;4.70;4.27;;;9.80;1.00;;;;;;6224930;23;20400;-87
2022/12/26 07:01:38;;;;;;;5.63;4.13;;;9.80;1.00;;;;;;6227561;23;20925;-87
2022/12/26 07:04:05;;;;;;;4.77;4.17;;;9.80;1.00;;;;;;6229697;23;20457;-86
2022/12/26 07:06:33;;;;;;;4.33;4.03;;;9.80;1.00;;;;;;6226929;23;20410;-86
2022/12/26 07:09:02;;;;;;;4.93;4.43;;;9.80;1.00;;;;;;6231970;23;20466;-87
2022/12/26 07:11:32;;;;;;;6.50;4.90;;;9.90;1.00;;;;;;6229565;23;20460;-86
2022/12/26 07:14:01;;;;;;;4.83;4.43;;;9.90;1.00;;;;;;6223511;23;20465;-87
2022/12/26 07:16:28;;;;;;;4.47;4.07;;;9.90;1.00;;;;;;6224706;23;20485;-86
2022/12/26 07:18:56;;;;;;;4.67;4.37;;;9.90;1.00;;;;;;6223510;23;20420;-86
2022/12/26 07:21:24;;;;;;;5.43;4.63;;;9.80;1.00;;;;;;6222819;23;20399;-86
2022/12/26 07:23:51;;;;;;;5.00;4.53;;;9.80;1.00;;;;;;6222991;23;20442;-87
2022/12/26 07:26:18;;;;;;;5.33;4.33;;;9.90;1.00;;;;;;6222835;23;20388;-87
2022/12/26 07:28:45;;;;;;;5.30;3.90;;;9.90;1.00;;;;;;6222831;23;20407;-87
2022/12/26 07:31:18;;;;;;;4.90;4.13;;;9.90;1.00;;;;;;6222336;23;20978;-87
2022/12/26 07:33:47;;;;;;;4.60;4.20;;;9.90;1.00;;;;;;6221763;23;20802;-87
2022/12/26 07:36:14;;;;;;;4.10;3.70;;;9.80;1.00;;;;;;6222449;23;20783;-87
2022/12/26 07:38:43;;;;;;;6.30;4.33;;;9.80;1.00;;;;;;6221506;23;20933;-87
2022/12/26 07:43:50;;;;;;;6.40;4.30;;;9.80;1.00;;;;;;6225471;23;20386;-87
2022/12/26 07:46:19;;;;;;;4.73;3.80;;;9.80;1.00;;;;;;6239842;23;20175;-87
2022/12/26 07:48:46;;;;;;;4.90;4.40;;;9.80;1.00;;;;;;6232913;23;20456;-87
2022/12/26 07:51:13;;;;;;;4.30;3.90;;;9.80;1.00;;;;;;6221844;23;20413;-87
2022/12/26 07:53:40;;;;;;;4.10;3.80;;;9.70;1.00;;;;;;6220751;23;20424;-88
2022/12/26 07:56:07;;;;;;;5.07;4.43;;;9.80;1.00;;;;;;6221876;23;20417;-87
2022/12/26 07:58:34;;;;;;;5.00;4.40;;;9.80;1.00;;;;;;6221092;23;20388;-87
2022/12/26 08:01:01;;;;;;;4.70;4.30;;;9.90;1.00;;;;;;6221828;23;20413;-86
2022/12/26 08:03:29;;;;;;;4.67;4.00;;;9.70;1.00;;;;;;6221354;23;20412;-88
2022/12/26 08:05:57;;;;;;;5.17;4.67;;;9.80;1.00;;;;;;6221193;23;20491;-86
2022/12/26 08:08:23;;;;;;;3.90;3.60;;;9.80;1.00;;;;;;6221573;23;20406;-86
2022/12/26 08:10:59;;;;;;;4.73;4.30;;;9.80;1.00;;;;;;6220592;23;20445;-87
2022/12/26 08:13:28;;;;;;;4.77;3.70;;;9.90;1.00;;;;;;6222358;23;20752;-86
2022/12/26 08:15:56;;;;;;;5.40;4.90;;;9.90;1.00;;;;;;6221412;23;20743;-86
2022/12/26 08:18:23;;;;;;;6.87;4.63;;;9.90;1.00;;;;;;6226936;23;20470;-87
2022/12/26 08:20:51;;;;;;;4.77;4.27;;;9.90;1.00;;;;;;6242124;23;20419;-87
2022/12/26 08:23:18;;;;;;;4.90;4.40;;;10.00;1.00;;;;;;6241537;23;20419;-87
2022/12/26 08:25:45;;;;;;;6.68;4.55;;;10.00;1.00;;;;;;6238912;23;20434;-86
2022/12/26 08:28:12;;;;;;;5.87;5.27;;;10.00;1.00;;;;;;6238194;23;20405;-87
2022/12/26 08:30:40;;;;;;;5.43;4.93;;;10.00;1.00;;;;;;6238660;23;20434;-86
2022/12/26 08:33:08;;;;;;;4.77;4.33;;;10.00;1.00;;;;;;6237513;23;20477;-87
2022/12/26 08:35:35;;;;;;;5.53;4.33;;;10.00;1.00;;;;;;6226257;23;20457;-89
2022/12/26 08:38:03;;;;;;;4.73;4.30;;;10.00;1.00;;;;;;6222416;23;20489;-86
2022/12/26 08:40:30;;;;;;;4.07;3.67;;;10.00;1.00;;;;;;6220563;23;20520;-86
2022/12/26 08:42:57;;;;;;;6.70;4.43;;;10.00;1.00;;;;;;6220924;23;20993;-88
2022/12/26 08:45:24;;;;;;;5.60;5.10;;;10.00;1.00;;;;;;6222871;23;20456;-88
2022/12/26 08:47:51;;;;;;;5.03;4.33;;;10.00;1.00;;;;;;6222302;23;20463;-86
2022/12/26 08:50:18;;;;;;;5.77;4.20;;;10.00;1.00;;;;;;6228855;23;20438;-86
2022/12/26 08:52:45;;;;;;;5.40;3.93;;;10.00;1.00;;;;;;6242635;23;20401;-86
2022/12/26 08:55:13;;;;;;;4.40;4.00;;;9.80;1.00;;;;;;6238846;23;20395;-87
2022/12/26 08:57:40;;;;;;;5.40;3.80;;;10.00;1.00;;;;;;6227304;23;20394;-87
2022/12/26 09:00:09;;;;;;;5.50;5.00;;;10.00;1.00;;;;;;6227257;23;20437;-87
2022/12/26 09:02:36;;;;;;;7.30;4.97;;;10.00;1.00;;;;;;6240922;23;20436;-87
2022/12/26 09:05:03;;;;;;;5.80;5.00;;;10.00;1.00;;;;;;6241711;23;20380;-87
2022/12/26 09:07:30;;;;;;;6.73;5.67;;;10.10;1.00;;;;;;6231866;23;20167;-87
2022/12/26 09:09:57;;;;;;;5.80;5.20;;;10.00;1.00;;;;;;6244836;23;20434;-87
2022/12/26 09:12:25;;;;;;;5.30;4.80;;;10.10;1.00;;;;;;6244837;23;20384;-86
2022/12/26 09:14:52;;;;;;;5.87;5.07;;;10.20;1.00;;;;;;6244631;23;20372;-87
2022/12/26 09:17:19;;;;;;;5.57;4.53;;;10.10;1.00;;;;;;6244263;23;20365;-87
2022/12/26 09:19:46;;;;;;;5.30;4.83;;;10.10;1.00;;;;;;6234675;23;20424;-87
2022/12/26 09:24:57;;;;;;;6.60;5.17;;;10.10;1.00;;;;;;6232071;23;20373;-87
2022/12/26 09:27:25;;;;;;;7.87;6.17;;;10.30;1.00;;;;;;6228518;23;20469;-87
2022/12/26 09:29:52;;;;;;;5.60;5.10;;;10.10;1.00;;;;;;6225392;23;20441;-86
2022/12/26 09:32:19;;;;;;;5.17;4.77;;;9.80;1.00;;;;;;6225863;23;20436;-87
2022/12/26 09:34:48;;;;;;;6.93;5.30;;;10.20;1.00;;;;;;6224882;23;20392;-88
2022/12/26 09:37:15;;;;;;;7.10;5.83;;;10.10;1.00;;;;;;6224830;23;20489;-87
2022/12/26 09:39:42;;;;;;;6.63;5.00;;;10.20;1.00;;;;;;6229898;23;20407;-87
2022/12/26 09:42:20;;;;;;;6.57;5.20;;;10.20;1.00;;;;;;6241019;23;20400;-86
2022/12/26 09:44:58;;;;;;;6.60;4.93;;;10.20;1.00;;;;;;6254144;22;20461;-83
2022/12/26 09:47:32;;;;;;;5.33;4.83;;;10.20;1.00;;;;;;6261035;22;20390;-84
2022/12/26 09:50:05;;;;;;;8.53;6.33;;;10.20;1.00;;;;;;6261017;22;20424;-84
2022/12/26 09:52:40;;;;;;;10.73;5.73;;;10.20;1.00;;;;;;6259756;22;20360;-86
2022/12/26 09:55:19;;;;;;;7.40;5.40;;;10.20;1.00;;;;;;6229585;23;20411;-84
2022/12/26 09:57:50;;;;;;;6.70;6.00;;;10.20;1.00;;;;;;6229031;23;20450;-84
2022/12/26 10:00:21;;;;;;;8.73;6.37;;;10.30;1.00;;;;;;6229276;23;20361;-84
2022/12/26 10:02:53;;;;;;;10.40;7.30;;;10.30;1.00;;;;;;6234488;23;20422;-84
2022/12/26 10:05:21;;;;;;;6.73;6.13;;;10.30;1.00;;;;;;6239190;23;20388;-84
2022/12/26 10:07:51;;;;;;;8.40;7.17;;;10.30;1.00;;;;;;6239128;23;20384;-84
2022/12/26 10:10:23;;;;;;;8.50;5.77;;;10.40;1.00;;;;;;6237862;23;20419;-83
2022/12/26 10:13:00;;;;;;;6.00;5.40;;;10.60;1.00;;;;;;6238378;23;20364;-84
2022/12/26 10:15:42;;;;;;;7.13;5.90;;;10.50;1.00;;;;;;6238050;23;20356;-84
2022/12/26 10:18:21;;;;;;;6.73;6.13;;;10.70;1.00;;;;;;6237865;23;20394;-85
2022/12/26 10:21:01;;;;;;;5.27;4.80;;;10.60;1.00;;;;;;6241012;23;20385;-84
2022/12/26 10:23:32;;;;;;;5.00;4.47;;;10.40;1.00;;;;;;6240128;23;20486;-84
2022/12/26 10:26:06;;;;;;;5.73;5.20;;;10.50;1.00;;;;;;6238767;23;20405;-85
2022/12/26 10:28:38;;;;;;;4.30;3.90;;;10.10;1.00;;;;;;6230893;23;20422;-84
2022/12/26 10:31:11;;;;;;;4.13;3.83;;;10.60;1.00;;;;;;6239434;23;20425;-84
2022/12/26 10:33:45;;;;;;;5.00;3.63;;;10.60;1.00;;;;;;6240704;23;20449;-84
2022/12/26 10:36:18;;;;;;;4.73;3.27;;;10.60;1.00;;;;;;6241296;23;20408;-84
2022/12/26 10:38:47;;;;;;;6.20;3.30;;;10.60;99.90;;;;;;6240865;23;20397;-83
2022/12/26 10:41:20;;;;;;;4.63;4.23;;;10.60;99.90;;;;;;6242161;23;20399;-83
2022/12/26 10:43:47;;;;;;;5.13;4.70;;;10.60;99.90;;;;;;6242318;23;20409;-85
2022/12/26 10:46:44;;;;;;;6.90;4.93;;;10.60;99.90;;;;;;6239594;23;20402;-82
2022/12/26 10:49:13;;;;;;;4.77;4.37;;;10.60;99.90;;;;;;6239815;23;20387;-84
2022/12/26 10:51:40;;;;;;;5.60;4.67;;;10.50;99.90;;;;;;6239833;23;20450;-83
2022/12/26 10:54:14;;;;;;;4.40;4.00;;;10.50;99.90;;;;;;6240709;23;20392;-84
2022/12/26 10:56:41;;;;;;;5.53;4.30;;;10.50;99.90;;;;;;6237943;23;20393;-84
2022/12/26 10:59:14;;;;;;;4.77;4.27;;;10.60;99.90;;;;;;6233286;23;20456;-84
2022/12/26 11:01:46;;;;;;;3.90;3.60;;;10.60;99.90;;;;;;6233565;23;20414;-86
2022/12/26 11:04:16;;;;;;;5.57;4.37;;;10.50;99.90;;;;;;6238391;23;20466;-85
2022/12/26 11:06:44;;;;;;;3.17;2.97;;;10.50;99.90;;;;;;6239242;23;20437;-84
2022/12/26 11:09:35;;;;;;;3.33;2.97;;;10.40;99.90;;;;;;6238448;23;20372;-83
2022/12/26 11:12:02;;;;;;;6.40;3.33;;;10.50;99.90;;;;;;6242249;23;20445;-84
2022/12/26 11:14:33;;;;;;;4.07;3.80;;;10.50;99.90;;;;;;6233968;23;20419;-85
2022/12/26 11:17:05;;;;;;;4.43;3.40;;;10.70;99.90;;;;;;6233778;23;20411;-84
2022/12/26 11:19:34;;;;;;;3.90;3.60;;;10.50;99.90;;;;;;6233409;23;20396;-84
2022/12/26 11:22:24;;;;;;;3.73;3.33;;;10.40;99.90;;;;;;6234219;23;20370;-84
2022/12/26 11:25:22;;;;;;;3.20;2.90;;;10.30;99.90;;;;;;6234009;23;20464;-84
2022/12/26 11:27:51;;;;;;;4.23;3.83;;;10.40;99.90;;;;;;6184077;23;20435;-84
2022/12/26 11:30:30;;;;;;;2.90;2.70;;;10.30;99.90;;;;;;6233286;23;20434;-84
2022/12/26 11:33:23;;;;;;;3.43;3.13;;;10.60;99.90;;;;;;6232841;23;20431;-85
2022/12/26 11:35:53;;;;;;;3.03;2.80;;;10.40;99.90;;;;;;6233049;23;20360;-84
2022/12/26 11:38:38;;;;;;;6.13;5.30;;;10.40;99.90;;;;;;6235044;23;20359;-84
2022/12/26 11:43:57;;;;;;;3.90;3.20;;;10.30;99.90;;;;;;6233309;23;20426;-85
2022/12/26 11:46:33;;;;;;;3.70;3.40;;;10.30;99.90;;;;;;6234134;23;20726;-85
2022/12/26 11:49:02;;;;;;;5.20;3.63;;;10.20;99.90;;;;;;6237407;23;20405;-84
2022/12/26 11:51:34;;;;;;;3.60;2.90;;;10.60;99.90;;;;;;6236022;23;20496;-84
2022/12/26 11:54:30;;;;;;;2.57;2.37;;;10.30;99.90;;;;;;6233537;23;20426;-84
2022/12/26 11:57:11;;;;;;;3.97;3.67;;;10.30;99.90;;;;;;6179676;23;20466;-85
2022/12/26 11:59:39;;;;;;;4.97;4.57;;;10.30;99.90;;;;;;6232579;23;20396;-85
2022/12/26 12:02:23;;;;;;;3.33;3.10;;;10.30;99.90;;;;;;6232550;23;20397;-84
2022/12/26 12:04:54;;;;;;;5.10;4.37;;;10.30;99.90;;;;;;6232171;23;20461;-84
2022/12/26 12:07:42;;;;;;;3.67;3.30;;;10.30;99.90;;;;;;6232516;23;20452;-84
2022/12/26 12:10:43;;;;;;;4.17;3.87;;;10.30;99.90;;;;;;6231899;23;20442;-84
2022/12/26 12:13:21;;;;;;;6.07;5.30;;;10.10;99.90;;;;;;6231311;23;20408;-84
2022/12/26 12:15:52;;;;;;;7.40;6.10;;;10.30;99.90;;;;;;6239893;23;20378;-84
2022/12/26 12:18:29;;;;;;;3.57;3.27;;;10.30;99.90;;;;;;6242423;23;20445;-84
2022/12/26 12:21:10;;;;;;;5.03;4.63;;;10.50;99.90;;;;;;6230478;23;20357;-84
2022/12/26 12:23:51;;;;;;;5.10;4.37;;;10.10;99.90;;;;;;6225755;23;20529;-84
2022/12/26 12:26:23;;;;;;;5.47;4.53;;;10.30;99.90;;;;;;6224044;23;20423;-84
2022/12/26 12:29:23;;;;;;;5.57;5.13;;;10.30;99.90;;;;;;6224965;23;20389;-83
2022/12/26 12:32:03;;;;;;;5.27;4.70;;;10.30;99.90;;;;;;6225619;23;20420;-83
2022/12/26 12:34:43;;;;;;;5.83;5.07;;;10.30;99.90;;;;;;6224495;23;20441;-83
2022/12/26 12:37:27;;;;;;;4.97;4.47;;;10.30;99.90;;;;;;6225570;23;20410;-84
2022/12/26 12:40:02;;;;;;;5.33;4.63;;;10.00;99.90;;;;;;6230151;23;20402;-83
2022/12/26 12:42:42;;;;;;;5.83;4.53;;;10.30;99.90;;;;;;6228547;23;20386;-82
2022/12/26 12:45:32;;;;;;;5.27;4.47;;;10.70;99.90;;;;;;6221060;23;20396;-84
2022/12/26 12:48:22;;;;;;;5.13;4.63;;;10.20;99.90;;;;;;6215976;23;20509;-83
2022/12/26 12:50:56;;;;;;;4.83;4.33;;;10.20;99.90;;;;;;6222292;23;20424;-84
2022/12/26 12:53:40;;;;;;;5.17;4.67;;;10.10;99.90;;;;;;6223194;23;20426;-84
2022/12/26 12:56:19;;;;;;;4.60;4.03;;;10.30;99.90;;;;;;6226659;23;20365;-84
2022/12/26 12:58:53;;;;;;;6.93;6.23;;;10.30;99.90;;;;;;6228243;23;20386;-84
2022/12/26 13:01:26;;;;;;;5.93;5.43;;;10.30;99.90;;;;;;6232134;23;20386;-83
2022/12/26 13:04:04;;;;;;;5.50;5.00;;;10.30;99.90;;;;;;6235640;23;20426;-84
2022/12/26 13:06:37;;;;;;;5.33;4.47;;;10.70;99.90;;;;;;6234474;23;20397;-83
2022/12/26 13:09:15;;;;;;;4.30;3.90;;;10.30;99.90;;;;;;6231472;23;20410;-84
2022/12/26 13:11:45;;;;;;;4.87;4.30;;;10.30;99.90;;;;;;6233649;23;20426;-85
2022/12/26 13:14:17;;;;;;;4.37;3.90;;;10.30;99.90;;;;;;6232599;23;20400;-84
2022/12/26 13:16:47;;;;;;;5.87;4.27;;;9.10;99.90;;;;;;6232466;23;20385;-85
2022/12/26 13:19:19;;;;;;;5.60;4.10;;;10.30;99.90;;;;;;6232824;23;20697;-85
2022/12/26 13:21:48;;;;;;;4.77;4.00;;;10.20;99.90;;;;;;6231312;23;20421;-84
2022/12/26 13:24:24;;;;;;;4.03;3.70;;;10.30;99.90;;;;;;6232760;23;20426;-84
2022/12/26 13:26:57;;;;;;;4.20;3.80;;;10.20;99.90;;;;;;6236172;23;20470;-84
2022/12/26 13:29:36;;;;;;;5.07;4.47;;;10.20;99.90;;;;;;6241214;23;20408;-84
2022/12/26 13:32:13;;;;;;;4.50;4.10;;;10.20;99.90;;;;;;6235809;23;20781;-85
2022/12/26 13:34:42;;;;;;;6.03;5.17;;;10.10;99.90;;;;;;6233783;23;20426;-84
2022/12/26 13:37:48;;;;;;;4.97;4.47;;;10.10;99.90;;;;;;6233937;23;20437;-85
2022/12/26 13:40:19;;;;;;;4.53;4.13;;;9.90;99.90;;;;;;6233169;23;20477;-85
2022/12/26 13:45:58;;;;;;;5.00;4.60;;;10.10;99.90;;;;;;6231571;23;20428;-85
2022/12/26 13:49:02;;;;;;;5.27;4.70;;;10.20;99.90;;;;;;6232052;23;20386;-84
2022/12/26 13:51:50;;;;;;;5.27;4.77;;;10.00;99.90;;;;;;6241832;23;20418;-84
2022/12/26 13:54:19;;;;;;;6.83;5.90;;;10.00;99.90;;;;;;6243791;23;20398;-84
2022/12/26 13:57:38;;;;;;;6.10;5.00;;;9.50;99.90;;;;;;6233450;23;20471;-84
2022/12/26 14:00:13;;;;;;;6.00;5.07;;;9.90;99.90;;;;;;6141138;23;20376;-84
2022/12/26 14:03:15;;;;;;;5.57;5.00;;;9.80;99.90;;;;;;6139991;23;20416;-84
2022/12/26 14:06:14;;;;;;;5.23;4.53;;;9.80;99.90;;;;;;6209226;23;20406;-85
2022/12/26 14:08:48;;;;;;;8.10;6.80;;;9.60;99.90;;;;;;6175668;23;20384;-84
2022/12/26 14:11:33;;;;;;;6.47;5.60;;;9.70;99.90;;;;;;6227659;23;20428;-84
2022/12/26 14:14:11;;;;;;;6.27;5.67;;;9.60;99.90;;;;;;6223237;23;20940;-84
2022/12/26 14:16:46;;;;;;;5.67;5.13;;;9.70;99.90;;;;;;6226953;23;20389;-84
2022/12/26 14:19:26;;;;;;;6.30;5.70;;;9.70;99.90;;;;;;6226404;23;20414;-84
2022/12/26 14:22:00;;;;;;;12.17;5.77;;;9.70;1.00;;;;;;6228909;23;20382;-84
2022/12/26 14:24:36;;;;;;;6.60;5.70;;;9.70;99.90;;;;;;6229467;23;20439;-84
2022/12/26 14:27:26;;;;;;;7.23;6.53;;;9.60;99.90;;;;;;6230791;23;20446;-85
2022/12/26 14:30:04;;;;;;;7.20;6.57;;;9.60;99.90;;;;;;6231097;23;20454;-84
2022/12/26 14:32:40;;;;;;;6.63;5.93;;;9.60;1.00;;;;;;6231809;23;20406;-85
2022/12/26 14:35:18;;;;;;;8.70;6.23;;;9.50;99.90;;;;;;6232052;23;20171;-85
2022/12/26 14:37:51;;;;;;;7.13;6.10;;;9.50;99.90;;;;;;6231324;23;20419;-84
2022/12/26 14:40:27;;;;;;;7.23;5.90;;;9.50;1.00;;;;;;6231272;23;20376;-85
2022/12/26 14:43:27;;;;;;;7.75;6.35;;;9.00;1.00;;;;;;6230369;23;20394;-84
2022/12/26 14:45:56;;;;;;;7.90;6.30;;;9.40;99.90;;;;;;6234699;23;20167;-85
2022/12/26 14:48:47;;;;;;;7.63;6.60;;;9.30;99.90;;;;;;6232288;23;20720;-85
2022/12/26 14:51:33;;;;;;;6.80;5.80;;;9.30;99.90;;;;;;6230759;23;20405;-85
2022/12/26 14:54:45;;;;;;;6.43;5.60;;;9.20;1.00;;;;;;6230714;23;20777;-85
2022/12/26 14:57:40;;;;;;;6.70;5.90;;;9.30;99.90;;;;;;6234522;23;20378;-85
2022/12/26 15:00:34;;;;;;;6.90;6.30;;;9.30;99.90;;;;;;6241933;23;20402;-83
2022/12/26 15:03:28;;;;;;;6.60;5.07;;;9.30;99.90;;;;;;6243475;23;20412;-84
2022/12/26 15:06:04;;;;;;;6.20;5.60;;;9.40;99.90;;;;;;6240280;23;20377;-84
2022/12/26 15:08:43;;;;;;;6.90;5.97;;;9.40;99.90;;;;;;6243220;23;20413;-83
2022/12/26 15:11:33;;;;;;;6.57;5.30;;;9.20;99.90;;;;;;6243077;23;20394;-84
2022/12/26 15:14:31;;;;;;;7.30;5.40;;;9.50;99.90;;;;;;6233527;23;20461;-85
2022/12/26 15:17:08;;;;;;;8.23;5.33;;;9.30;99.90;;;;;;6232383;23;20370;-84
2022/12/26 15:20:04;;;;;;;8.63;6.10;;;9.40;99.90;;;;;;6231973;23;20376;-85
2022/12/26 15:23:18;;;;;;;9.77;6.40;;;9.50;99.90;;;;;;6231070;23;20377;-84
2022/12/26 15:26:19;;;;;;;5.63;5.03;;;9.50;99.90;;;;;;6232374;23;20389;-85
2022/12/26 15:29:17;;;;;;;7.03;5.37;;;9.60;99.90;;;;;;6231216;23;20364;-85
2022/12/26 15:31:54;;;;;;;8.07;6.23;;;9.80;99.90;;;;;;6230710;23;20438;-83
2022/12/26 15:34:42;;;;;;;15.50;10.60;;;9.60;99.90;;;;;;6229513;23;20460;-84
2022/12/26 15:37:20;;;;;;;15.63;8.47;;;9.50;99.90;;;;;;6220735;23;20479;-84
2022/12/26 15:39:55;;;;;;;15.43;11.87;;;9.40;99.90;;;;;;6220803;23;20398;-84
2022/12/26 15:42:42;;;;;;;9.67;8.67;;;9.30;99.90;;;;;;6223577;23;20391;-85
2022/12/26 15:45:25;;;;;;;7.60;6.83;;;9.10;99.90;;;;;;6259313;22;20471;-86
2022/12/26 15:48:01;;;;;;;9.70;7.53;;;8.90;1.00;;;;;;6268543;23;20396;-87
2022/12/26 15:50:32;;;;;;;9.20;6.67;;;8.90;1.00;;;;;;6254859;23;20468;-88